Henry Tift Myers Airport


Codes: KTMA/TMA
Name: Henry Tift Myers Airport
City: Tifton
Country: United States
Elevation: 355 ft.
Wikipedia:

Photos at Henry Tift Myers Airport


   Photos courtesy of SpottingLog. You can add your own sightings and photos by signing up for a free trial today.



No photos found.

Weather at Henry Tift Myers Airport


Time (UTC)DescriptionTempratureWindCloud coverageVisibilityPressureHumidity
18-Apr-2024 00:00Broken Clouds27°C9 mph, S83%10000m1019hPa51%
18-Apr-2024 03:00Overcast Clouds24°C7 mph, SW92%10000m1019hPa59%
18-Apr-2024 06:00Overcast Clouds20°C4 mph, W100%10000m1018hPa74%
18-Apr-2024 09:00Overcast Clouds20°C4 mph, W100%10000m1018hPa78%
18-Apr-2024 12:00Overcast Clouds19°C4 mph, W100%10000m1020hPa82%
18-Apr-2024 15:00Overcast Clouds24°C4 mph, W100%10000m1020hPa60%
18-Apr-2024 18:00Overcast Clouds28°C4 mph, W100%10000m1018hPa44%
18-Apr-2024 21:00Overcast Clouds28°C7 mph, W100%10000m1017hPa46%
19-Apr-2024 00:00Overcast Clouds24°C4 mph, W100%10000m1017hPa60%
19-Apr-2024 03:00Overcast Clouds23°C7 mph, W100%10000m1017hPa63%
19-Apr-2024 06:00Overcast Clouds22°C4 mph, W99%10000m1016hPa71%
19-Apr-2024 09:00Light Rain20°C7 mph, W69%10000m1017hPa91%
19-Apr-2024 12:00Broken Clouds20°C7 mph, NW59%10000m1018hPa90%
19-Apr-2024 15:00Scattered Clouds26°C7 mph, NW49%10000m1018hPa63%
19-Apr-2024 18:00Scattered Clouds30°C7 mph, W31%10000m1017hPa46%
19-Apr-2024 21:00Few Clouds30°C9 mph, W11%10000m1015hPa44%
20-Apr-2024 00:00Clear Sky26°C7 mph, SW7%10000m1015hPa62%
20-Apr-2024 03:00Clear Sky23°C7 mph, W8%10000m1016hPa67%
20-Apr-2024 06:00Few Clouds21°C7 mph, W22%10000m1016hPa70%
20-Apr-2024 09:00Scattered Clouds19°C4 mph, W46%10000m1016hPa80%
20-Apr-2024 12:00Broken Clouds20°C4 mph, NW57%10000m1017hPa83%
20-Apr-2024 15:00Scattered Clouds26°C4 mph, W28%10000m1018hPa64%
20-Apr-2024 18:00Light Rain29°C7 mph, W33%10000m1016hPa50%
20-Apr-2024 21:00Broken Clouds30°C9 mph, W84%10000m1014hPa45%
21-Apr-2024 00:00Light Rain24°C7 mph, NW92%10000m1016hPa73%
21-Apr-2024 03:00Light Rain22°C4 mph, W100%10000m1016hPa80%
21-Apr-2024 06:00Light Rain21°C7 mph, NW100%10000m1015hPa89%
21-Apr-2024 09:00Overcast Clouds18°C4 mph, N91%10000m1015hPa92%
21-Apr-2024 12:00Overcast Clouds19°C4 mph, NE91%10000m1016hPa82%
21-Apr-2024 15:00Broken Clouds24°C4 mph, SE74%10000m1016hPa62%
21-Apr-2024 18:00Broken Clouds28°C9 mph, SW79%10000m1013hPa45%
21-Apr-2024 21:00Overcast Clouds27°C11 mph, NW100%10000m1011hPa51%
22-Apr-2024 00:00Light Rain19°C11 mph, N100%10000m1013hPa90%
22-Apr-2024 03:00Heavy Intensity Rain16°C11 mph, NE100%10000m1014hPa95%
22-Apr-2024 06:00Overcast Clouds16°C4 mph, N86%10000m1013hPa92%
22-Apr-2024 09:00Light Rain15°C9 mph, N100%10000m1014hPa92%
22-Apr-2024 12:00Overcast Clouds14°C9 mph, N100%10000m1016hPa90%
22-Apr-2024 15:00Overcast Clouds15°C7 mph, N100%10000m1016hPa86%
22-Apr-2024 18:00Overcast Clouds17°C7 mph, NW100%10000m1016hPa73%
22-Apr-2024 21:00Overcast Clouds18°C7 mph, NW100%10000m1015hPa68%